Overview Statistics Trail Chart Weather Telemetry Raw packets
 

This is the latest recevied telemetry packets stored in our database for station/object OE3MHU-16. If no packets are shown the sender has not sent any telemetry packets the latest 10 day(s).

Telemetry packets is used to share measurements like repeteater parameters, battery voltage, radiation readings (or any other measurements).

<< 1 2 >>
Time Press* Temp.in* Hum* QNH* Temp.out*
1778040903 988.9 hPa 22.7 C deg 0 % 1009.6 hPa 0 C deg
1778039088 988.7 hPa 22 C deg 0 % 1009.5 hPa 0 C deg
1778037273 988.5 hPa 22.3 C deg 0 % 1009.3 hPa 0 C deg
1778035461 988.7 hPa 22 C deg 0 % 1009.5 hPa 0 C deg
1778033646 988.5 hPa 22.2 C deg 0 % 1009.3 hPa 0 C deg
1778031828 988.3 hPa 22.2 C deg 0 % 1009 hPa 0 C deg
1778030013 988.1 hPa 22.1 C deg 0 % 1008.8 hPa 0 C deg
1778028198 987.9 hPa 21.5 C deg 0 % 1008.7 hPa 0 C deg
1778026383 987.5 hPa 21.4 C deg 0 % 1008.3 hPa 0 C deg
1778024565 987.1 hPa 21.5 C deg 0 % 1007.9 hPa 0 C deg
1778022750 987 hPa 21.7 C deg 0 % 1007.8 hPa 0 C deg
1778020935 986.6 hPa 21.8 C deg 0 % 1007.3 hPa 0 C deg
1778019119 986.2 hPa 21.9 C deg 0 % 1007 hPa 0 C deg
1778017304 986 hPa 22.4 C deg 0 % 1006.7 hPa 0 C deg
1778015489 985.6 hPa 22.3 C deg 0 % 1006.3 hPa 0 C deg
1778013674 985.4 hPa 22.6 C deg 0 % 1006.1 hPa 0 C deg
1778011861 985 hPa 23.6 C deg 0 % 1005.6 hPa 0 C deg
1778010046 984.8 hPa 23.9 C deg 0 % 1005.3 hPa 0 C deg
1778008228 984.7 hPa 24.2 C deg 0 % 1005.2 hPa 0 C deg
1778006413 984.7 hPa 24.5 C deg 0 % 1005.2 hPa 0 C deg
1778004598 984.6 hPa 25.1 C deg 0 % 1005.1 hPa 0 C deg
1778000970 984.4 hPa 25.9 C deg 0 % 1004.8 hPa 0 C deg
1777999156 984.6 hPa 26.1 C deg 0 % 1005 hPa 0 C deg
1777997343 984.8 hPa 25.8 C deg 0 % 1005.3 hPa 0 C deg
1777995528 984.8 hPa 25.9 C deg 0 % 1005.3 hPa 0 C deg
*Used Equation Coefficients:
Press: 0, 1, 0
Temp.in: 0, 1, 0
Hum: 0, 1, 0
QNH: 0, 1, 0
Temp.out: 0, 1, 0

  • The parameter names for the analog channels will be Value1, Value2, Value3 (up to Value5) if station has not sent a PARAM-packet that specifies the parameter names for each analog channel.
  • Each analog value is a decimal number between 000 and 255 (according to APRS specifications). The receiver use the telemetry equation coefficientsto to restore the original sensor values. If no EQNS-packet with equation coefficients is sent we will show the values as is (this corresponds to the equation coefficients a=0, b=1 and c=0).
    The sent equation coefficients is used in the equation: a * value2 + b * value + c.
  • The units for the analog values will not be shown if station has not sent a UNIT-packet specifying what unit's to use.
  • The parameter names for the digital bits will be Bit1, Bit2, Bit3 (up to Bit8) if station has not sent a PARAM-packet that specifies the parameter names for each digital bit.
  • All bit labels will be named "On" if station has not sent a UNIT-packet that specifies the label of each bit.
  • A bit is considered to be On when the bit is 1 if station has not sent a BITS-packet that specifies another "Bit sense" (a BITS-packet specify the state of the bits that match the BIT labels)